Marion, Indiana
Current Conditions -  °F | °C
As of 12:35 PM on Saturday 22 Nov 2014 (Local Time) from KMZZ Reporting Station
Overcast Overcast  
Wind Chill: 38°   Ceiling: 4200
Heat Index: 45°   Visibility: 10mi
Dew Point: 39°   Wind: 16mph
Humidity: 79%   Direction: 200°SSW
Pressure: 30.08"   Gusts: 21mph
Location:  40.56°N, 85.66°W
Report Text: KMZZ 221735Z AUTO 20014G18KT 10SM OVC042 07/04 A3008 RMK AO2 T00710037
Loading
Personal Weather Stations






























Interactive Weather Map New forecast layout! Learn more

10-Day Weather Forecast

Advertisements
Track Severe Weather on mobile